Mandalgovi, Mongolia
Current Conditions -  °F | °C
As of 4:30 PM on Monday 24 Nov 2014 (Local Time) from ZMUB Reporting Station
Clear Clear  
Wind Chill: 15°   Ceiling: Unl
Heat Index: 25°   Visibility: 6mi
Dew Point:   Wind: 9mph
Humidity: 36%   Direction: 160°SSE
Pressure: 29.77"   Gusts: NA
Location:  45.77°N, 106.26°E
Report Text: ZMUB 240830Z 16004MPS CAVOK M04/M17 Q1008 NOSIG RMK QFE649.6 30
Loading
Personal Weather Stations






























Interactive Weather Map New forecast layout! Learn more

10-Day Weather Forecast

Advertisements
Track Severe Weather on mobile